createdAt,value
2022-10-29T00:00:41.586Z,10.69
2022-10-29T00:03:44.995Z,10.80
2022-10-29T00:06:48.022Z,10.79
2022-10-29T00:09:49.997Z,10.63
2022-10-29T00:12:51.929Z,10.77
2022-10-29T00:15:53.945Z,10.85
2022-10-29T00:18:57.494Z,10.82
2022-10-29T00:21:59.458Z,10.94
2022-10-29T00:25:01.310Z,11.02
2022-10-29T00:28:03.369Z,11.04
2022-10-29T00:31:06.464Z,10.85
2022-10-29T00:34:09.902Z,10.68
2022-10-29T00:37:11.860Z,10.48
2022-10-29T00:40:13.906Z,10.54
2022-10-29T00:43:18.198Z,10.77
2022-10-29T00:46:27.678Z,10.90
2022-10-29T00:49:33.038Z,10.87
2022-10-29T00:52:41.179Z,10.93
2022-10-29T00:55:43.232Z,11.01
2022-10-29T00:58:46.135Z,10.97
2022-10-29T01:01:49.336Z,10.60
2022-10-29T01:04:53.780Z,10.72
2022-10-29T01:07:55.809Z,10.79
2022-10-29T01:11:05.156Z,10.86
2022-10-29T01:14:17.710Z,10.79
2022-10-29T01:17:28.605Z,10.64
2022-10-29T01:21:02.076Z,10.54
2022-10-29T01:24:40.252Z,10.75
2022-10-29T01:27:56.364Z,10.80
2022-10-29T01:31:09.094Z,10.77
2022-10-29T01:34:17.514Z,10.90
2022-10-29T01:37:28.435Z,10.98
2022-10-29T01:40:35.168Z,11.04
2022-10-29T01:43:41.673Z,11.03
2022-10-29T01:46:49.794Z,11.03
2022-10-29T01:49:57.281Z,11.02
2022-10-29T01:53:00.549Z,11.00
2022-10-29T01:56:02.516Z,11.05
2022-10-29T01:59:11.353Z,11.10
2022-10-29T02:02:30.432Z,11.10
2022-10-29T02:05:35.743Z,11.06
2022-10-29T02:08:46.037Z,11.09
2022-10-29T02:11:54.606Z,11.08
2022-10-29T02:15:02.714Z,10.57
2022-10-29T02:18:08.175Z,10.35
2022-10-29T02:21:10.206Z,10.37
2022-10-29T02:24:12.258Z,10.53
2022-10-29T02:27:14.288Z,10.63
2022-10-29T02:30:16.613Z,10.70
2022-10-29T02:33:19.940Z,10.69
2022-10-29T02:36:21.803Z,10.65
2022-10-29T02:39:23.891Z,10.44
2022-10-29T02:42:26.048Z,10.42
2022-10-29T02:45:27.978Z,10.55
2022-10-29T02:48:31.261Z,10.32
2022-10-29T02:51:33.255Z,10.49
2022-10-29T02:54:35.193Z,10.55
2022-10-29T02:57:37.133Z,10.61
2022-10-29T03:00:39.024Z,10.56
2022-10-29T03:03:42.444Z,10.63
2022-10-29T03:06:44.464Z,10.66
2022-10-29T03:09:46.412Z,10.76
2022-10-29T03:12:48.360Z,10.79
2022-10-29T03:15:50.252Z,10.78
2022-10-29T03:18:53.779Z,10.83
2022-10-29T03:21:55.870Z,10.81
2022-10-29T03:24:57.831Z,10.81
2022-10-29T03:27:59.768Z,10.77
2022-10-29T03:31:01.636Z,10.75
2022-10-29T03:34:04.933Z,10.67
2022-10-29T03:37:06.973Z,10.62
2022-10-29T03:40:09.648Z,10.56
2022-10-29T03:43:11.603Z,10.54
2022-10-29T03:46:13.684Z,10.49
2022-10-29T03:49:17.031Z,10.40
2022-10-29T03:52:19.062Z,10.26
2022-10-29T03:55:21.009Z,10.28
2022-10-29T03:58:23.506Z,10.19
2022-10-29T04:01:25.582Z,10.31
2022-10-29T04:04:28.991Z,10.36
2022-10-29T04:07:31.029Z,10.37
2022-10-29T04:10:33.147Z,10.29
2022-10-29T04:13:35.128Z,10.18
2022-10-29T04:16:37.330Z,10.20
2022-10-29T04:19:40.807Z,10.23
2022-10-29T04:27:45.470Z,10.22
2022-10-29T04:29:27.171Z,10.16
2022-10-29T04:32:29.084Z,10.18
2022-10-29T04:35:32.468Z,10.19
2022-10-29T04:38:34.443Z,10.18
2022-10-29T04:41:36.355Z,10.24
2022-10-29T04:44:38.294Z,10.21
2022-10-29T04:47:40.220Z,10.11
2022-10-29T04:50:43.589Z,10.06
2022-10-29T04:53:45.513Z,10.06
2022-10-29T04:56:47.444Z,10.01
2022-10-29T04:59:49.439Z,9.98
2022-10-29T05:02:52.284Z,9.96
2022-10-29T05:05:55.626Z,9.73
2022-10-29T05:08:57.849Z,9.55
2022-10-29T05:11:59.745Z,9.46
2022-10-29T05:15:02.053Z,9.37
2022-10-29T05:18:04.884Z,9.40
2022-10-29T05:21:08.191Z,9.34
2022-10-29T05:24:10.101Z,9.10
2022-10-29T05:27:12.012Z,9.25
2022-10-29T05:30:14.291Z,9.38
2022-10-29T05:33:18.446Z,9.47
2022-10-29T05:36:21.775Z,9.52
2022-10-29T05:39:23.750Z,9.49
2022-10-29T05:42:27.824Z,9.57
2022-10-29T05:45:29.765Z,9.67
2022-10-29T05:48:31.741Z,9.65
2022-10-29T05:51:35.177Z,9.69
2022-10-29T05:54:37.142Z,9.74
2022-10-29T05:57:39.183Z,9.76
2022-10-29T06:00:43.947Z,9.39
2022-10-29T06:03:46.315Z,9.20
2022-10-29T06:06:49.656Z,9.24
2022-10-29T06:09:51.600Z,9.36
2022-10-29T06:12:53.708Z,9.33
2022-10-29T06:15:58.366Z,9.31
2022-10-29T06:19:00.352Z,9.41
2022-10-29T06:22:04.912Z,9.49
2022-10-29T06:25:07.748Z,9.46
2022-10-29T06:28:12.162Z,9.39
2022-10-29T06:31:14.148Z,9.09
2022-10-29T06:34:16.110Z,9.01
2022-10-29T06:37:19.472Z,9.06
2022-10-29T06:40:21.407Z,9.12
2022-10-29T06:43:23.332Z,9.25
2022-10-29T06:46:25.329Z,9.34
2022-10-29T06:49:27.250Z,9.45
2022-10-29T06:52:30.581Z,9.55
2022-10-29T06:55:33.399Z,9.66
2022-10-29T06:58:35.359Z,9.68
2022-10-29T07:01:37.577Z,9.79
2022-10-29T07:04:39.520Z,9.95
2022-10-29T07:07:43.164Z,10.13
2022-10-29T07:10:45.129Z,10.29
2022-10-29T07:13:47.080Z,10.44
2022-10-29T07:16:49.024Z,10.57
2022-10-29T07:19:50.973Z,10.74
2022-10-29T07:22:54.338Z,10.85
2022-10-29T07:25:56.286Z,10.99
2022-10-29T07:28:58.438Z,11.11
2022-10-29T07:32:00.375Z,11.24
2022-10-29T07:35:02.363Z,11.32
2022-10-29T07:38:09.229Z,11.37
2022-10-29T07:41:12.725Z,11.41
2022-10-29T07:44:14.691Z,11.48
2022-10-29T07:47:16.600Z,11.52
2022-10-29T07:50:18.587Z,11.59
2022-10-29T07:53:22.306Z,11.65
2022-10-29T07:56:24.283Z,11.74
2022-10-29T07:59:26.250Z,11.85
2022-10-29T08:02:28.170Z,11.93
2022-10-29T08:05:30.871Z,12.02
2022-10-29T08:08:34.327Z,12.09
2022-10-29T08:11:36.267Z,12.16
2022-10-29T08:14:38.339Z,12.25
2022-10-29T08:17:40.273Z,12.27
2022-10-29T08:20:42.706Z,12.33
2022-10-29T08:23:46.101Z,12.38
2022-10-29T08:26:49.583Z,12.49
2022-10-29T08:29:51.555Z,12.53
2022-10-29T08:32:53.845Z,12.71
2022-10-29T08:35:56.138Z,12.83
2022-10-29T08:38:59.535Z,12.87
2022-10-29T08:42:15.117Z,12.92
2022-10-29T08:45:25.474Z,13.05
2022-10-29T08:48:36.415Z,13.14
2022-10-29T08:51:40.691Z,13.23
2022-10-29T08:54:47.738Z,13.38
2022-10-29T08:57:54.628Z,13.50
2022-10-29T09:00:58.818Z,13.68
2022-10-29T09:04:00.908Z,13.92
2022-10-29T09:07:25.977Z,13.98
2022-10-29T09:10:34.463Z,14.00
2022-10-29T09:13:49.121Z,14.03
2022-10-29T09:16:55.512Z,14.02
2022-10-29T09:20:12.462Z,14.05
2022-10-29T09:23:24.557Z,14.14
2022-10-29T09:26:31.261Z,14.26
2022-10-29T09:29:51.565Z,14.39
2022-10-29T09:32:59.827Z,14.48
2022-10-29T09:36:02.440Z,14.62
2022-10-29T09:39:12.396Z,14.59
2022-10-29T09:42:20.112Z,14.67
2022-10-29T09:45:30.291Z,14.71
2022-10-29T09:48:38.577Z,14.70
2022-10-29T09:51:46.386Z,14.68
2022-10-29T09:54:49.690Z,14.70
2022-10-29T09:57:54.179Z,14.71
2022-10-29T10:00:56.356Z,14.75
2022-10-29T10:04:04.222Z,14.80
2022-10-29T10:07:08.137Z,14.85
2022-10-29T10:10:21.134Z,14.92
2022-10-29T10:13:27.590Z,14.99
2022-10-29T10:16:33.363Z,15.07
2022-10-29T10:19:43.510Z,15.14
2022-10-29T10:22:47.280Z,15.37
2022-10-29T10:25:52.967Z,15.48
2022-10-29T10:29:09.654Z,15.60
2022-10-29T10:32:16.037Z,15.66
2022-10-29T10:35:26.673Z,15.69
2022-10-29T10:38:29.377Z,15.79
2022-10-29T10:41:35.342Z,15.82
2022-10-29T10:44:44.993Z,15.96
2022-10-29T10:47:50.172Z,15.97
2022-10-29T10:50:53.787Z,16.05
2022-10-29T10:53:55.887Z,16.13
2022-10-29T10:57:00.349Z,16.17
2022-10-29T11:00:06.881Z,16.22
2022-10-29T11:03:16.939Z,16.24
2022-10-29T11:06:22.985Z,16.23
2022-10-29T11:09:28.849Z,16.22
2022-10-29T11:12:34.990Z,16.29
2022-10-29T11:15:44.274Z,16.32
2022-10-29T11:18:51.946Z,16.33
2022-10-29T11:22:11.808Z,16.35
2022-10-29T11:25:16.619Z,16.41
2022-10-29T11:28:26.153Z,16.42
2022-10-29T11:31:40.656Z,16.43
2022-10-29T11:34:52.624Z,16.42
2022-10-29T11:38:01.678Z,16.47
2022-10-29T11:41:07.698Z,16.48
2022-10-29T11:44:12.071Z,16.53
2022-10-29T11:47:31.369Z,16.62
2022-10-29T11:50:42.695Z,16.78
2022-10-29T11:53:56.912Z,16.91
2022-10-29T11:57:03.830Z,17.04
2022-10-29T12:00:14.061Z,17.12
2022-10-29T12:03:44.880Z,17.14
2022-10-29T12:06:57.390Z,17.18
2022-10-29T12:10:15.331Z,17.17
2022-10-29T12:13:32.838Z,17.12
2022-10-29T12:16:47.544Z,17.07
2022-10-29T12:19:58.111Z,17.09
2022-10-29T12:23:14.483Z,17.08
2022-10-29T12:26:26.269Z,17.15
2022-10-29T12:29:37.996Z,17.11
2022-10-29T12:32:51.908Z,17.11
2022-10-29T12:39:18.986Z,17.13
2022-10-29T12:42:24.421Z,17.19
2022-10-29T12:45:39.926Z,17.22
2022-10-29T12:49:05.872Z,17.23
2022-10-29T12:52:16.453Z,17.25
2022-10-29T12:55:19.325Z,17.26
2022-10-29T12:58:50.269Z,17.25
2022-10-29T13:05:37.695Z,17.37
2022-10-29T13:08:41.040Z,17.40
2022-10-29T13:11:48.645Z,17.44
2022-10-29T13:14:55.607Z,17.42
2022-10-29T13:18:04.897Z,17.34
2022-10-29T13:21:06.882Z,17.34
2022-10-29T13:24:16.700Z,17.35
2022-10-29T13:27:34.515Z,17.42
2022-10-29T13:30:37.426Z,17.39
2022-10-29T13:33:49.532Z,17.45
2022-10-29T13:36:51.496Z,17.43
2022-10-29T13:40:26.723Z,17.49
2022-10-29T13:43:31.707Z,17.50
2022-10-29T13:46:47.278Z,17.52
2022-10-29T13:49:50.564Z,17.52
2022-10-29T13:52:56.779Z,17.52
2022-10-29T13:55:59.778Z,17.53
2022-10-29T13:59:08.517Z,17.51
2022-10-29T14:02:28.751Z,17.51
2022-10-29T14:05:35.017Z,17.54
2022-10-29T14:08:43.845Z,17.54
2022-10-29T14:11:55.729Z,17.52
2022-10-29T14:15:04.219Z,17.48
2022-10-29T14:18:18.726Z,17.44
2022-10-29T14:21:23.788Z,17.40
2022-10-29T14:24:25.724Z,17.38
2022-10-29T14:27:27.851Z,17.36
2022-10-29T14:30:31.292Z,17.34
2022-10-29T14:33:34.976Z,17.32
2022-10-29T14:36:40.994Z,17.26
2022-10-29T14:39:57.952Z,17.22
2022-10-29T14:43:01.419Z,17.20
2022-10-29T14:46:17.317Z,17.23
2022-10-29T14:49:21.564Z,17.22
2022-10-29T14:52:29.653Z,17.23
2022-10-29T14:55:35.264Z,17.20
2022-10-29T14:58:38.632Z,17.19
2022-10-29T15:01:56.742Z,17.20
2022-10-29T15:05:07.482Z,17.12
2022-10-29T15:08:16.924Z,17.12
2022-10-29T15:11:36.731Z,17.11
2022-10-29T15:14:46.536Z,17.08
2022-10-29T15:17:53.804Z,17.05
2022-10-29T15:20:56.388Z,17.03
2022-10-29T15:24:02.765Z,17.01
2022-10-29T15:27:04.941Z,16.96
2022-10-29T15:30:07.852Z,16.94
2022-10-29T15:33:18.191Z,16.87
2022-10-29T15:36:20.396Z,16.81
2022-10-29T15:39:24.963Z,16.77
2022-10-29T15:42:28.596Z,16.73
2022-10-29T15:45:30.629Z,16.66
2022-10-29T15:48:36.867Z,16.44
2022-10-29T15:51:38.923Z,16.40
2022-10-29T15:54:40.849Z,16.06
2022-10-29T15:57:44.360Z,15.98
2022-10-29T16:00:47.580Z,15.95
2022-10-29T16:03:51.106Z,15.68
2022-10-29T16:06:53.125Z,15.53
2022-10-29T16:09:57.971Z,15.27
2022-10-29T16:13:00.297Z,15.23
2022-10-29T16:16:02.465Z,14.99
2022-10-29T16:19:06.121Z,14.83
2022-10-29T16:22:13.394Z,15.04
2022-10-29T16:25:27.175Z,14.93
2022-10-29T16:28:29.107Z,14.83
2022-10-29T16:31:31.105Z,14.87
2022-10-29T16:34:36.598Z,15.03
2022-10-29T16:37:38.791Z,15.09
2022-10-29T16:40:41.032Z,15.09
2022-10-29T16:43:43.604Z,14.98
2022-10-29T16:46:45.600Z,15.00
2022-10-29T16:49:49.136Z,15.00
2022-10-29T16:52:57.128Z,15.00
2022-10-29T16:55:59.105Z,14.95
2022-10-29T16:59:02.182Z,14.68
2022-10-29T17:02:04.658Z,14.69
2022-10-29T17:05:09.002Z,14.54
2022-10-29T17:08:11.586Z,14.62
2022-10-29T17:11:13.524Z,14.45
2022-10-29T17:14:15.875Z,14.51
2022-10-29T17:17:18.182Z,14.53
2022-10-29T17:20:21.731Z,14.39
2022-10-29T17:23:24.178Z,14.36
2022-10-29T17:26:27.636Z,14.41
2022-10-29T17:29:35.193Z,14.25
2022-10-29T17:32:38.661Z,13.98
2022-10-29T17:35:42.506Z,13.83
2022-10-29T17:38:44.694Z,13.58
2022-10-29T17:41:47.268Z,13.36
2022-10-29T17:44:49.934Z,13.30
2022-10-29T17:47:55.503Z,13.08
2022-10-29T17:51:01.275Z,12.86
2022-10-29T17:54:03.893Z,12.70
2022-10-29T17:57:06.319Z,12.63
2022-10-29T18:00:09.824Z,12.59
2022-10-29T18:03:12.974Z,12.57
2022-10-29T18:06:17.399Z,12.74
2022-10-29T18:09:21.195Z,12.76
2022-10-29T18:12:23.444Z,12.67
2022-10-29T18:15:25.505Z,12.81
2022-10-29T18:18:27.998Z,12.73
2022-10-29T18:21:33.146Z,12.73
2022-10-29T18:24:35.583Z,12.84
2022-10-29T18:27:39.288Z,12.86
2022-10-29T18:30:41.242Z,12.66
2022-10-29T18:33:43.934Z,12.24
2022-10-29T18:36:48.393Z,12.09
2022-10-29T18:39:50.382Z,12.18
2022-10-29T18:42:53.031Z,12.11
2022-10-29T18:45:56.935Z,12.01
2022-10-29T18:49:00.644Z,12.29
2022-10-29T18:52:05.465Z,11.95
2022-10-29T18:55:08.567Z,11.67
2022-10-29T18:58:10.844Z,11.76
2022-10-29T19:01:14.850Z,11.95
2022-10-29T19:04:17.435Z,12.07
2022-10-29T19:07:21.298Z,11.94
2022-10-29T19:10:23.344Z,11.67
2022-10-29T19:13:25.589Z,11.52
2022-10-29T19:16:29.546Z,11.34
2022-10-29T19:19:32.054Z,11.45
2022-10-29T19:22:35.713Z,11.52
2022-10-29T19:25:40.293Z,11.57
2022-10-29T19:28:43.160Z,11.69
2022-10-29T19:31:46.297Z,11.35
2022-10-29T19:34:48.594Z,11.34
2022-10-29T19:37:52.793Z,11.49
2022-10-29T19:40:55.807Z,11.45
2022-10-29T19:43:59.473Z,11.20
2022-10-29T19:47:02.196Z,11.31
2022-10-29T19:50:05.086Z,11.18
2022-10-29T19:53:09.251Z,11.20
2022-10-29T19:56:12.717Z,11.20
2022-10-29T19:59:16.738Z,11.33
2022-10-29T20:02:18.866Z,11.13
2022-10-29T20:05:20.882Z,11.18
2022-10-29T20:08:24.738Z,11.33
2022-10-29T20:11:27.344Z,11.61
2022-10-29T20:14:29.651Z,11.80
2022-10-29T20:17:32.378Z,11.91
2022-10-29T20:20:34.503Z,11.93
2022-10-29T20:23:38.153Z,12.04
2022-10-29T20:26:40.739Z,12.10
2022-10-29T20:29:43.158Z,11.94
2022-10-29T20:32:45.873Z,11.72
2022-10-29T20:35:47.983Z,11.90
2022-10-29T20:38:52.660Z,11.97
2022-10-29T20:41:54.757Z,11.93
2022-10-29T20:44:57.464Z,11.80
2022-10-29T20:48:02.221Z,11.73
2022-10-29T20:51:04.587Z,11.81
2022-10-29T20:54:08.122Z,11.89
2022-10-29T20:57:10.444Z,11.98
2022-10-29T21:00:13.377Z,11.69
2022-10-29T21:03:16.580Z,11.82
2022-10-29T21:06:19.286Z,11.90
2022-10-29T21:09:22.585Z,11.97
2022-10-29T21:12:24.535Z,11.98
2022-10-29T21:15:26.524Z,12.08
2022-10-29T21:18:28.469Z,11.99
2022-10-29T21:21:30.628Z,12.06
2022-10-29T21:24:35.416Z,12.14
2022-10-29T21:27:37.466Z,12.19
2022-10-29T21:30:39.444Z,12.03
2022-10-29T21:33:41.809Z,12.00
2022-10-29T21:36:43.751Z,11.69
2022-10-29T21:39:47.132Z,11.33
2022-10-29T21:42:49.063Z,11.38
2022-10-29T21:45:51.845Z,11.13
2022-10-29T21:48:55.013Z,11.38
2022-10-29T21:51:56.934Z,11.58
2022-10-29T21:55:00.256Z,11.76
2022-10-29T21:58:02.937Z,11.81
2022-10-29T22:01:07.549Z,11.77
2022-10-29T22:04:09.556Z,11.76
2022-10-29T22:07:11.453Z,11.78
2022-10-29T22:10:14.894Z,11.46
2022-10-29T22:13:16.972Z,11.41
2022-10-29T22:16:19.017Z,11.20
2022-10-29T22:19:20.885Z,11.15
2022-10-29T22:22:23.014Z,11.23
2022-10-29T22:25:26.272Z,11.34
2022-10-29T22:28:28.282Z,11.53
2022-10-29T22:31:30.290Z,11.65
2022-10-29T22:34:32.251Z,11.71
2022-10-29T22:37:34.097Z,11.77
2022-10-29T22:40:40.977Z,11.78
2022-10-29T22:43:43.884Z,11.67
2022-10-29T22:46:45.988Z,11.61
2022-10-29T22:49:47.910Z,11.56
2022-10-29T22:52:49.936Z,11.64
2022-10-29T22:55:53.747Z,11.66
2022-10-29T22:58:56.226Z,11.74
2022-10-29T23:01:58.284Z,11.76
2022-10-29T23:05:00.318Z,11.72
2022-10-29T23:08:02.237Z,11.63
2022-10-29T23:11:07.208Z,11.57
2022-10-29T23:14:09.154Z,11.57
2022-10-29T23:17:11.055Z,11.54
2022-10-29T23:20:13.027Z,11.44
2022-10-29T23:23:14.912Z,11.04
2022-10-29T23:26:19.469Z,10.99
2022-10-29T23:29:21.460Z,10.94
2022-10-29T23:32:23.415Z,10.82
2022-10-29T23:35:25.440Z,10.85
2022-10-29T23:38:27.426Z,10.98
2022-10-29T23:41:31.323Z,11.10
2022-10-29T23:44:33.219Z,11.17
2022-10-29T23:47:35.256Z,11.23
2022-10-29T23:50:37.870Z,11.31
2022-10-29T23:53:41.007Z,11.32
2022-10-29T23:56:44.299Z,11.30
2022-10-29T23:59:46.195Z,11.35
